Nibulon 2 — UUAT3 — position and weather

sailwx.info

Track history (hours):
 
Tides and Currents Weather Stations Pressure Air Temp Water Temp Dewpoint Dewpoint Depression Visibility Wind Speed Wind Dir Waves Ship Positions

Nibulon 2

Last reported at 2017-Oct-17 03:54 UTC. Time now 2017-Oct-18 17:05 UTC.
Position N 46°33' E 032°19'.

Length 38 m; draft 2.6 m.

Type: Towing. MMSI: 272651000.

Date/timePositionNaut miles runAvg speedWind from/ knotsBaromVisibWave heightAir tempDewpointWater temp
2017-Oct-17 03:54N 46°33' E 032°19'2 4.8
2017-Oct-17 03:30N 46°33' E 032°16'2 3.9
2017-Oct-17 02:59N 46°33' E 032°14'0 0.0
2017-Oct-17 02:30N 46°33' E 032°14'0 0.0
2017-Oct-17 01:59N 46°33' E 032°14'0 0.0
2017-Oct-17 01:29N 46°33' E 032°14'0 0.1
2017-Oct-17 01:00N 46°33' E 032°14'0 0.2
2017-Oct-17 00:30N 46°33' E 032°14'2 4.3
2017-Oct-16 23:58N 46°32' E 032°10'2 4.9
2017-Oct-16 23:30N 46°32' E 032°07'2 5.0
2017-Oct-16 23:00N 46°32' E 032°03'2 4.9
2017-Oct-16 22:30N 46°33' E 032°00'2 4.9
2017-Oct-16 22:00N 46°34' E 031°57'2 4.9
2017-Oct-16 21:30N 46°34' E 031°53'2 4.9
2017-Oct-16 21:00N 46°35' E 031°50'2 4.9
2017-Oct-16 20:30N 46°35' E 031°46'2 4.9
2017-Oct-16 20:00N 46°35' E 031°43'2 4.8
2017-Oct-16 19:30N 46°35' E 031°39'2 4.9
2017-Oct-16 19:00N 46°36' E 031°36'1 1.3
2017-Oct-16 18:22N 46°36' E 031°35'0 0.4
2017-Oct-16 17:54N 46°36' E 031°35'1 0.1
2017-Oct-16 07:50N 46°36' E 031°36'0 0.0
2017-Oct-16 07:17N 46°36' E 031°36'0 0.1
2017-Oct-16 06:54N 46°36' E 031°36'0 0.1
2017-Oct-16 05:15N 46°36' E 031°35'0 0.0
2017-Oct-16 04:59N 46°36' E 031°35'0 0.0
2017-Oct-16 04:30N 46°36' E 031°35'0 0.0
2017-Oct-16 03:57N 46°36' E 031°35'0 0.0
2017-Oct-16 03:26N 46°36' E 031°35'0 0.0
2017-Oct-16 02:52N 46°36' E 031°35'0 0.0
2017-Oct-16 02:17N 46°36' E 031°35'0 0.0
2017-Oct-16 01:50N 46°36' E 031°35'0 0.0
2017-Oct-16 01:30N 46°36' E 031°35'0 0.0
2017-Oct-15 23:27N 46°36' E 031°35'0 0.0
2017-Oct-15 23:00N 46°36' E 031°35'0 0.0
2017-Oct-15 22:30N 46°36' E 031°35'0 0.0
2017-Oct-15 02:29N 46°36' E 031°35'0 0.0
2017-Oct-15 01:52N 46°36' E 031°35'0 0.0
2017-Oct-15 01:29N 46°36' E 031°35'0 0.0
2017-Oct-14 19:05N 46°36' E 031°35'0 0.0
2017-Oct-14 18:51N 46°36' E 031°35'0 0.0
2017-Oct-14 01:42N 46°36' E 031°35'0 0.0
2017-Oct-14 01:29N 46°36' E 031°35'0 0.0
2017-Oct-13 23:30N 46°36' E 031°35'0 0.1
2017-Oct-13 21:39N 46°36' E 031°35'0 0.0
2017-Oct-13 21:23N 46°36' E 031°35'0 0.0
2017-Oct-13 21:00N 46°36' E 031°35'0 0.0
2017-Oct-13 20:30N 46°36' E 031°35'0 0.0
2017-Oct-13 19:56N 46°36' E 031°35'0 0.0
2017-Oct-13 19:30N 46°36' E 031°35'0 0.1
2017-Oct-13 18:58N 46°36' E 031°35'0 0.0
2017-Oct-13 18:30N 46°36' E 031°35'0 0.0
2017-Oct-13 18:00N 46°36' E 031°35'0 0.0
2017-Oct-13 10:23N 46°36' E 031°35'0 0.0
2017-Oct-13 07:00N 46°36' E 031°35'0 0.1
2017-Oct-13 06:30N 46°36' E 031°35'0 0.0
2017-Oct-13 06:00N 46°36' E 031°35'0 0.8
2017-Oct-13 05:30N 46°36' E 031°35'2 4.5
2017-Oct-13 05:00N 46°35' E 031°32'2 4.6
2017-Oct-13 04:30N 46°36' E 031°30'2 4.7
2017-Oct-13 04:00N 46°35' E 031°26'3 5.1
2017-Oct-13 03:30N 46°34' E 031°23'3 5.4
2017-Oct-13 03:00N 46°35' E 031°19'3 5.4
2017-Oct-13 02:30N 46°34' E 031°15'0 0.5
2017-Oct-13 02:00N 46°35' E 031°15'0 0.0
2017-Oct-13 01:30N 46°35' E 031°15'0 0.0
2017-Oct-13 01:00N 46°35' E 031°15'0 0.0
2017-Oct-13 00:30N 46°35' E 031°15'0 0.0
2017-Oct-13 00:00N 46°35' E 031°15'0 0.0
2017-Oct-12 23:30N 46°35' E 031°15'0 0.0
2017-Oct-12 23:00N 46°35' E 031°15'0 0.1
2017-Oct-12 22:30N 46°35' E 031°15'0 0.0
2017-Oct-12 22:00N 46°35' E 031°15'0 0.0
2017-Oct-12 21:30N 46°35' E 031°15'0 0.0
2017-Oct-12 21:00N 46°35' E 031°15'0 0.0
2017-Oct-12 20:30N 46°35' E 031°15'0 0.0
2017-Oct-12 20:00N 46°35' E 031°15'0 0.0
2017-Oct-12 19:30N 46°35' E 031°15'0 0.1
2017-Oct-12 19:00N 46°35' E 031°15'0 0.0
2017-Oct-12 18:30N 46°35' E 031°15'0 0.0
2017-Oct-12 18:00N 46°35' E 031°15'0 0.0
2017-Oct-12 17:30N 46°35' E 031°15'0 0.1
2017-Oct-12 17:00N 46°35' E 031°15'0 0.0
2017-Oct-12 16:30N 46°35' E 031°15'0 0.0
2017-Oct-12 16:00N 46°35' E 031°15'0 0.0
2017-Oct-12 15:27N 46°35' E 031°15'12 1.4
2017-Oct-12 06:52N 46°35' E 031°33'1 3.9
2017-Oct-12 06:30N 46°35' E 031°35'1 1.6
2017-Oct-12 05:59N 46°36' E 031°35'0 0.0
2017-Oct-12 05:30N 46°36' E 031°35'0 0.0
2017-Oct-12 05:00N 46°36' E 031°35'0 0.0
2017-Oct-12 04:29N 46°36' E 031°35'0 0.0
2017-Oct-12 04:00N 46°36' E 031°35'0 0.0
2017-Oct-12 03:30N 46°36' E 031°35'0 0.1
2017-Oct-12 01:43N 46°36' E 031°35'0 0.1
2017-Oct-12 01:24N 46°36' E 031°35'0 0.0
2017-Oct-12 00:57N 46°36' E 031°35'0 0.0
2017-Oct-12 00:28N 46°36' E 031°35'0 0.0
2017-Oct-12 00:00N 46°36' E 031°35'0 0.0
2017-Oct-11 23:30N 46°36' E 031°35'0 0.0
2017-Oct-11 23:00N 46°36' E 031°35'0 0.0
2017-Oct-11 22:30N 46°36' E 031°35'0 0.0
2017-Oct-11 22:00N 46°36' E 031°35'0 0.0
2017-Oct-11 21:30N 46°36' E 031°35'0 0.0
2017-Oct-11 21:00N 46°36' E 031°35'0 0.0
2017-Oct-11 20:30N 46°36' E 031°35'0 0.0
2017-Oct-11 20:00N 46°36' E 031°35'0 0.0
2017-Oct-11 19:30N 46°36' E 031°35'0 0.0
2017-Oct-11 19:00N 46°36' E 031°35'0 0.0
2017-Oct-11 18:30N 46°36' E 031°35'0 0.0
2017-Oct-11 18:00N 46°36' E 031°35'0 0.0
2017-Oct-11 17:30N 46°36' E 031°35'0 0.0
2017-Oct-11 17:00N 46°36' E 031°35'21 1.2
2017-Oct-11 00:00N 46°32' E 032°05'2 3.8
2017-Oct-10 23:30N 46°32' E 032°07'2 3.8
2017-Oct-10 23:00N 46°32' E 032°10'2 3.8
2017-Oct-10 22:30N 46°33' E 032°13'  
Track history (hours):
 
Tides and Currents Weather Stations Pressure Air Temp Water Temp Dewpoint Dewpoint Depression Visibility Wind Speed Wind Dir Waves Ship Positions

Nibulon 2

Last reported at 2017-Oct-17 03:54 UTC. Time now 2017-Oct-18 17:05 UTC.
Position N 46°33' E 032°19'.

Length 38 m; draft 2.6 m.

Type: Towing. MMSI: 272651000.

Date/timePositionNaut miles runAvg speedWind from/ knotsBaromVisibWave heightAir tempDewpointWater temp
2017-Oct-17 03:54N 46°33' E 032°19'2 4.8
2017-Oct-17 03:30N 46°33' E 032°16'2 3.9
2017-Oct-17 02:59N 46°33' E 032°14'0 0.0
2017-Oct-17 02:30N 46°33' E 032°14'0 0.0
2017-Oct-17 01:59N 46°33' E 032°14'0 0.0
2017-Oct-17 01:29N 46°33' E 032°14'0 0.1
2017-Oct-17 01:00N 46°33' E 032°14'0 0.2
2017-Oct-17 00:30N 46°33' E 032°14'2 4.3
2017-Oct-16 23:58N 46°32' E 032°10'2 4.9
2017-Oct-16 23:30N 46°32' E 032°07'2 5.0
2017-Oct-16 23:00N 46°32' E 032°03'2 4.9
2017-Oct-16 22:30N 46°33' E 032°00'2 4.9
2017-Oct-16 22:00N 46°34' E 031°57'2 4.9
2017-Oct-16 21:30N 46°34' E 031°53'2 4.9
2017-Oct-16 21:00N 46°35' E 031°50'2 4.9
2017-Oct-16 20:30N 46°35' E 031°46'2 4.9
2017-Oct-16 20:00N 46°35' E 031°43'2 4.8
2017-Oct-16 19:30N 46°35' E 031°39'2 4.9
2017-Oct-16 19:00N 46°36' E 031°36'1 1.3
2017-Oct-16 18:22N 46°36' E 031°35'0 0.4
2017-Oct-16 17:54N 46°36' E 031°35'1 0.1
2017-Oct-16 07:50N 46°36' E 031°36'0 0.0
2017-Oct-16 07:17N 46°36' E 031°36'0 0.1
2017-Oct-16 06:54N 46°36' E 031°36'0 0.1
2017-Oct-16 05:15N 46°36' E 031°35'0 0.0
2017-Oct-16 04:59N 46°36' E 031°35'0 0.0
2017-Oct-16 04:30N 46°36' E 031°35'0 0.0
2017-Oct-16 03:57N 46°36' E 031°35'0 0.0
2017-Oct-16 03:26N 46°36' E 031°35'0 0.0
2017-Oct-16 02:52N 46°36' E 031°35'0 0.0
2017-Oct-16 02:17N 46°36' E 031°35'0 0.0
2017-Oct-16 01:50N 46°36' E 031°35'0 0.0
2017-Oct-16 01:30N 46°36' E 031°35'0 0.0
2017-Oct-15 23:27N 46°36' E 031°35'0 0.0
2017-Oct-15 23:00N 46°36' E 031°35'0 0.0
2017-Oct-15 22:30N 46°36' E 031°35'0 0.0
2017-Oct-15 02:29N 46°36' E 031°35'0 0.0
2017-Oct-15 01:52N 46°36' E 031°35'0 0.0
2017-Oct-15 01:29N 46°36' E 031°35'0 0.0
2017-Oct-14 19:05N 46°36' E 031°35'0 0.0
2017-Oct-14 18:51N 46°36' E 031°35'0 0.0
2017-Oct-14 01:42N 46°36' E 031°35'0 0.0
2017-Oct-14 01:29N 46°36' E 031°35'0 0.0
2017-Oct-13 23:30N 46°36' E 031°35'0 0.1
2017-Oct-13 21:39N 46°36' E 031°35'0 0.0
2017-Oct-13 21:23N 46°36' E 031°35'0 0.0
2017-Oct-13 21:00N 46°36' E 031°35'0 0.0
2017-Oct-13 20:30N 46°36' E 031°35'0 0.0
2017-Oct-13 19:56N 46°36' E 031°35'0 0.0
2017-Oct-13 19:30N 46°36' E 031°35'0 0.1
2017-Oct-13 18:58N 46°36' E 031°35'0 0.0
2017-Oct-13 18:30N 46°36' E 031°35'0 0.0
2017-Oct-13 18:00N 46°36' E 031°35'0 0.0
2017-Oct-13 10:23N 46°36' E 031°35'0 0.0
2017-Oct-13 07:00N 46°36' E 031°35'0 0.1
2017-Oct-13 06:30N 46°36' E 031°35'0 0.0
2017-Oct-13 06:00N 46°36' E 031°35'0 0.8
2017-Oct-13 05:30N 46°36' E 031°35'2 4.5
2017-Oct-13 05:00N 46°35' E 031°32'2 4.6
2017-Oct-13 04:30N 46°36' E 031°30'2 4.7
2017-Oct-13 04:00N 46°35' E 031°26'3 5.1
2017-Oct-13 03:30N 46°34' E 031°23'3 5.4
2017-Oct-13 03:00N 46°35' E 031°19'3 5.4
2017-Oct-13 02:30N 46°34' E 031°15'0 0.5
2017-Oct-13 02:00N 46°35' E 031°15'0 0.0
2017-Oct-13 01:30N 46°35' E 031°15'0 0.0
2017-Oct-13 01:00N 46°35' E 031°15'0 0.0
2017-Oct-13 00:30N 46°35' E 031°15'0 0.0
2017-Oct-13 00:00N 46°35' E 031°15'0 0.0
2017-Oct-12 23:30N 46°35' E 031°15'0 0.0
2017-Oct-12 23:00N 46°35' E 031°15'0 0.1
2017-Oct-12 22:30N 46°35' E 031°15'0 0.0
2017-Oct-12 22:00N 46°35' E 031°15'0 0.0
2017-Oct-12 21:30N 46°35' E 031°15'0 0.0
2017-Oct-12 21:00N 46°35' E 031°15'0 0.0
2017-Oct-12 20:30N 46°35' E 031°15'0 0.0
2017-Oct-12 20:00N 46°35' E 031°15'0 0.0
2017-Oct-12 19:30N 46°35' E 031°15'0 0.1
2017-Oct-12 19:00N 46°35' E 031°15'0 0.0
2017-Oct-12 18:30N 46°35' E 031°15'0 0.0
2017-Oct-12 18:00N 46°35' E 031°15'0 0.0
2017-Oct-12 17:30N 46°35' E 031°15'0 0.1
2017-Oct-12 17:00N 46°35' E 031°15'0 0.0
2017-Oct-12 16:30N 46°35' E 031°15'0 0.0
2017-Oct-12 16:00N 46°35' E 031°15'0 0.0
2017-Oct-12 15:27N 46°35' E 031°15'12 1.4
2017-Oct-12 06:52N 46°35' E 031°33'1 3.9
2017-Oct-12 06:30N 46°35' E 031°35'1 1.6
2017-Oct-12 05:59N 46°36' E 031°35'0 0.0
2017-Oct-12 05:30N 46°36' E 031°35'0 0.0
2017-Oct-12 05:00N 46°36' E 031°35'0 0.0
2017-Oct-12 04:29N 46°36' E 031°35'0 0.0
2017-Oct-12 04:00N 46°36' E 031°35'0 0.0
2017-Oct-12 03:30N 46°36' E 031°35'0 0.1
2017-Oct-12 01:43N 46°36' E 031°35'0 0.1
2017-Oct-12 01:24N 46°36' E 031°35'0 0.0
2017-Oct-12 00:57N 46°36' E 031°35'0 0.0
2017-Oct-12 00:28N 46°36' E 031°35'0 0.0
2017-Oct-12 00:00N 46°36' E 031°35'0 0.0
2017-Oct-11 23:30N 46°36' E 031°35'0 0.0
2017-Oct-11 23:00N 46°36' E 031°35'0 0.0
2017-Oct-11 22:30N 46°36' E 031°35'0 0.0
2017-Oct-11 22:00N 46°36' E 031°35'0 0.0
2017-Oct-11 21:30N 46°36' E 031°35'0 0.0
2017-Oct-11 21:00N 46°36' E 031°35'0 0.0
2017-Oct-11 20:30N 46°36' E 031°35'0 0.0
2017-Oct-11 20:00N 46°36' E 031°35'0 0.0
2017-Oct-11 19:30N 46°36' E 031°35'0 0.0
2017-Oct-11 19:00N 46°36' E 031°35'0 0.0
2017-Oct-11 18:30N 46°36' E 031°35'0 0.0
2017-Oct-11 18:00N 46°36' E 031°35'0 0.0
2017-Oct-11 17:30N 46°36' E 031°35'0 0.0
2017-Oct-11 17:00N 46°36' E 031°35'21 1.2
2017-Oct-11 00:00N 46°32' E 032°05'2 3.8
2017-Oct-10 23:30N 46°32' E 032°07'2 3.8
2017-Oct-10 23:00N 46°32' E 032°10'2 3.8
2017-Oct-10 22:30N 46°33' E 032°13'  

Dump ship's entire track history